Time;durP1;ratioP1;P1;durP2;ratioP2;P2;SDS_P1;SDS_P2;PMS_P1;PMS_P2;Temp;Humidity;BMP_temperature;BMP_pressure;BME280_temperature;BME280_humidity;BME280_pressure;Samples;Min_cycle;Max_cycle;Signal;HPM_P1;HPM_P2
2023/04/27 00:00:02;;;;;;;7.43;2.75;;;5.40;99.90;;;;;;5063883;28;20033;-36
2023/04/27 00:02:28;;;;;;;7.05;3.72;;;5.30;99.90;;;;;;5067773;28;20418;-38
2023/04/27 00:04:53;;;;;;;5.13;2.92;;;5.40;99.90;;;;;;5065641;28;20073;-36
2023/04/27 00:07:19;;;;;;;5.70;2.50;;;5.30;99.90;;;;;;5067839;28;20109;-34
2023/04/27 00:09:45;;;;;;;4.47;2.60;;;5.30;99.90;;;;;;5070010;28;20420;-34
2023/04/27 00:12:10;;;;;;;4.90;2.50;;;5.30;99.90;;;;;;5074807;28;20028;-35
2023/04/27 00:14:36;;;;;;;7.50;3.38;;;5.30;99.90;;;;;;5071277;28;20455;-35
2023/04/27 00:17:02;;;;;;;3.55;2.72;;;5.30;99.90;;;;;;5075919;28;20021;-33
2023/04/27 00:19:29;;;;;;;10.35;3.13;;;5.20;99.90;;;;;;5076496;28;20090;-35
2023/04/27 00:21:56;;;;;;;9.77;3.23;;;5.20;99.90;;;;;;5066078;28;20100;-36
2023/04/27 00:24:22;;;;;;;7.18;2.88;;;5.20;99.90;;;;;;5063366;28;20390;-38
2023/04/27 00:26:48;;;;;;;4.82;2.42;;;5.20;99.90;;;;;;5057607;28;20037;-37
2023/04/27 00:29:13;;;;;;;6.05;3.30;;;5.30;99.90;;;;;;5069899;28;20032;-37
2023/04/27 00:31:39;;;;;;;7.78;3.03;;;5.20;99.90;;;;;;5075798;28;20397;-36
2023/04/27 00:34:04;;;;;;;7.95;2.80;;;5.30;99.90;;;;;;5072751;28;20029;-37
2023/04/27 00:36:33;;;;;;;5.78;2.78;;;5.20;99.90;;;;;;5073081;28;20029;-38
2023/04/27 00:38:59;;;;;;;9.25;3.03;;;5.20;99.90;;;;;;5075616;28;20044;-33
2023/04/27 00:41:25;;;;;;;7.97;3.53;;;5.30;99.90;;;;;;5073187;28;20390;-37
2023/04/27 00:43:50;;;;;;;8.77;3.13;;;5.20;99.90;;;;;;5073947;28;20755;-36
2023/04/27 00:46:18;;;;;;;10.68;3.22;;;5.20;99.90;;;;;;5069029;28;20371;-37
2023/04/27 00:48:44;;;;;;;7.53;3.13;;;5.20;99.90;;;;;;5065982;28;20107;-33
2023/04/27 00:51:10;;;;;;;10.52;4.30;;;5.20;99.90;;;;;;5073577;28;20473;-37
2023/04/27 00:53:37;;;;;;;5.30;2.65;;;5.20;99.90;;;;;;5075503;28;20108;-39
2023/04/27 00:56:05;;;;;;;8.38;3.08;;;5.20;99.90;;;;;;5071634;28;20503;-36
2023/04/27 00:58:30;;;;;;;5.72;3.25;;;5.10;99.90;;;;;;5075211;28;20025;-38
2023/04/27 01:00:56;;;;;;;7.43;3.35;;;5.10;99.90;;;;;;5073750;28;20066;-33
2023/04/27 01:03:22;;;;;;;7.50;3.25;;;5.10;99.90;;;;;;5071841;28;20064;-39
2023/04/27 01:05:48;;;;;;;8.75;3.53;;;5.10;99.90;;;;;;5074380;28;20063;-39
2023/04/27 01:08:13;;;;;;;6.25;2.85;;;5.10;99.90;;;;;;5070903;28;20025;-35
2023/04/27 01:10:40;;;;;;;4.47;2.70;;;5.00;99.90;;;;;;5054786;28;20493;-37
2023/04/27 01:13:05;;;;;;;13.43;4.55;;;5.00;99.90;;;;;;5072071;28;20036;-36
2023/04/27 01:15:31;;;;;;;8.10;3.63;;;5.00;99.90;;;;;;5073692;28;20028;-39
2023/04/27 01:18:01;;;;;;;9.07;3.33;;;4.90;99.90;;;;;;5073563;28;20029;-38
2023/04/27 01:20:29;;;;;;;7.55;3.63;;;4.90;99.90;;;;;;5055387;28;20033;-40
2023/04/27 01:22:58;;;;;;;4.35;2.88;;;4.80;99.90;;;;;;5054743;28;20041;-36
2023/04/27 01:25:24;;;;;;;5.25;3.65;;;4.70;99.90;;;;;;5054747;28;20029;-38
2023/04/27 01:27:50;;;;;;;3.00;2.45;;;4.70;99.90;;;;;;5054600;28;20039;-35
2023/04/27 01:30:16;;;;;;;5.25;2.63;;;4.70;99.90;;;;;;5065726;28;20025;-39
2023/04/27 01:32:41;;;;;;;3.90;2.80;;;4.70;99.90;;;;;;5070950;28;20024;-40
2023/04/27 01:35:07;;;;;;;5.78;3.88;;;4.60;99.90;;;;;;5064561;28;20021;-39
2023/04/27 01:37:34;;;;;;;5.88;3.22;;;4.60;99.90;;;;;;5061954;28;20032;-40
2023/04/27 01:40:00;;;;;;;4.55;2.75;;;4.60;99.90;;;;;;5055409;28;20037;-40
2023/04/27 01:42:25;;;;;;;5.00;3.00;;;4.60;99.90;;;;;;5061737;28;20527;-40
2023/04/27 01:44:51;;;;;;;14.07;2.80;;;4.50;99.90;;;;;;5074250;28;20063;-38
2023/04/27 01:47:17;;;;;;;8.13;3.10;;;4.50;99.90;;;;;;5064517;28;20627;-39
2023/04/27 01:49:43;;;;;;;4.93;3.05;;;4.40;99.90;;;;;;5069879;28;20034;-40
2023/04/27 01:52:08;;;;;;;4.90;2.92;;;4.40;99.90;;;;;;5068011;28;20440;-41
2023/04/27 01:54:35;;;;;;;3.72;2.78;;;4.50;99.90;;;;;;5072181;28;20082;-40
2023/04/27 01:57:01;;;;;;;5.47;3.10;;;4.50;99.90;;;;;;5061778;28;20480;-40
2023/04/27 01:59:27;;;;;;;7.80;3.25;;;4.50;99.90;;;;;;5068389;28;20056;-37
2023/04/27 02:01:53;;;;;;;7.53;2.90;;;4.50;99.90;;;;;;5067931;28;20060;-40
2023/04/27 02:04:19;;;;;;;7.32;2.97;;;4.50;99.90;;;;;;5054344;28;20032;-39
2023/04/27 02:06:45;;;;;;;6.28;2.72;;;4.50;99.90;;;;;;5064594;28;20021;-41
2023/04/27 02:09:12;;;;;;;4.93;2.50;;;4.50;99.90;;;;;;5072871;28;20028;-40
2023/04/27 02:11:37;;;;;;;4.28;2.88;;;4.50;99.90;;;;;;5071646;28;20101;-39
2023/04/27 02:14:03;;;;;;;4.53;2.58;;;4.50;99.90;;;;;;5055284;28;20025;-41
2023/04/27 02:16:29;;;;;;;8.82;3.63;;;4.50;99.90;;;;;;5053454;28;20474;-45
2023/04/27 02:18:54;;;;;;;3.78;2.45;;;4.50;99.90;;;;;;5072150;28;20029;-40
2023/04/27 02:21:20;;;;;;;9.43;2.92;;;4.50;99.90;;;;;;5072539;28;20029;-40
2023/04/27 02:23:46;;;;;;;4.30;3.08;;;4.50;99.90;;;;;;5073361;28;20028;-40
2023/04/27 02:26:19;;;;;;;4.57;2.88;;;4.50;99.90;;;;;;5071118;28;20021;-40
2023/04/27 02:28:46;;;;;;;7.65;3.10;;;4.50;99.90;;;;;;5073743;28;20029;-39
2023/04/27 02:31:13;;;;;;;4.35;1.88;;;4.50;99.90;;;;;;5073279;28;20032;-40
2023/04/27 02:33:42;;;;;;;5.53;2.97;;;4.50;99.90;;;;;;5058584;28;20040;-38
2023/04/27 02:36:08;;;;;;;4.95;3.10;;;4.50;99.90;;;;;;5064482;28;20362;-43
2023/04/27 02:38:34;;;;;;;6.25;2.72;;;4.50;99.90;;;;;;5073330;28;20589;-39
2023/04/27 02:40:59;;;;;;;4.45;2.80;;;4.50;99.90;;;;;;5071281;28;20474;-36
2023/04/27 02:43:25;;;;;;;7.72;3.05;;;4.50;99.90;;;;;;5053685;28;20029;-41
2023/04/27 02:45:51;;;;;;;4.22;3.25;;;4.50;99.90;;;;;;5064814;28;20461;-42
2023/04/27 02:48:16;;;;;;;11.38;2.42;;;4.50;99.90;;;;;;5070470;28;20033;-41
2023/04/27 02:50:44;;;;;;;3.33;2.58;;;4.50;99.90;;;;;;5071889;28;20107;-40
2023/04/27 02:53:10;;;;;;;5.13;2.35;;;4.50;99.90;;;;;;5073100;28;20447;-40
2023/04/27 02:55:37;;;;;;;3.50;2.13;;;4.60;99.90;;;;;;5062818;28;20048;-40
2023/04/27 02:58:02;;;;;;;6.03;2.30;;;4.60;99.90;;;;;;5071212;28;20397;-40
2023/04/27 03:00:28;;;;;;;6.28;2.58;;;4.60;99.90;;;;;;5072275;28;20025;-43
2023/04/27 03:02:55;;;;;;;3.45;2.33;;;4.70;99.90;;;;;;5067762;28;20083;-39
2023/04/27 03:05:21;;;;;;;8.23;2.92;;;4.70;99.90;;;;;;5073316;28;20085;-42
2023/04/27 03:07:46;;;;;;;5.50;2.65;;;4.70;99.90;;;;;;5055646;28;20489;-40
2023/04/27 03:10:12;;;;;;;5.00;2.40;;;4.70;99.90;;;;;;5052004;28;20024;-40
2023/04/27 03:12:37;;;;;;;6.40;2.53;;;4.70;99.90;;;;;;5064124;28;20397;-40
2023/04/27 03:15:03;;;;;;;3.30;2.17;;;4.70;99.90;;;;;;5071465;28;20017;-39
2023/04/27 03:17:29;;;;;;;4.65;2.50;;;4.70;99.90;;;;;;5071760;28;20027;-40
2023/04/27 03:19:55;;;;;;;5.40;3.15;;;4.70;99.90;;;;;;5054126;28;20032;-40
2023/04/27 03:22:21;;;;;;;4.50;2.80;;;4.60;99.90;;;;;;5073044;28;20023;-41
2023/04/27 03:24:46;;;;;;;5.55;3.40;;;4.70;99.90;;;;;;5053076;28;20559;-43
2023/04/27 03:27:12;;;;;;;6.20;2.92;;;4.70;99.90;;;;;;5057504;28;20052;-41
2023/04/27 03:29:37;;;;;;;7.65;3.67;;;4.70;99.90;;;;;;5064373;28;20032;-41
2023/04/27 03:32:03;;;;;;;11.13;4.03;;;4.80;99.90;;;;;;5061536;28;20037;-41
2023/04/27 03:34:30;;;;;;;13.68;3.80;;;4.80;99.90;;;;;;5066390;28;20031;-40
2023/04/27 03:36:56;;;;;;;12.73;4.43;;;4.80;99.90;;;;;;5072786;28;20119;-41
2023/04/27 03:39:22;;;;;;;10.35;4.32;;;4.80;99.90;;;;;;5064742;28;20493;-41
2023/04/27 03:41:47;;;;;;;9.38;3.78;;;4.80;99.90;;;;;;5052605;28;20025;-41
2023/04/27 03:44:13;;;;;;;8.63;4.03;;;4.80;99.90;;;;;;5063780;28;20025;-41
2023/04/27 03:46:39;;;;;;;8.88;3.50;;;4.70;99.90;;;;;;5072541;28;20500;-41
2023/04/27 03:49:05;;;;;;;5.25;3.50;;;4.70;99.90;;;;;;5066162;28;20350;-41
2023/04/27 03:51:32;;;;;;;9.85;2.92;;;4.70;99.90;;;;;;5072594;28;20017;-40
2023/04/27 03:53:58;;;;;;;3.80;2.22;;;4.70;99.90;;;;;;5071746;28;20085;-39
2023/04/27 03:56:23;;;;;;;5.53;3.38;;;4.60;99.90;;;;;;5055684;28;20025;-43
2023/04/27 03:58:49;;;;;;;4.57;2.97;;;4.70;99.90;;;;;;5054336;28;20092;-40
2023/04/27 04:01:15;;;;;;;6.53;2.92;;;4.70;99.90;;;;;;5064422;28;20015;-42
2023/04/27 04:03:41;;;;;;;5.47;2.40;;;4.60;99.90;;;;;;5068244;28;20020;-41
2023/04/27 04:06:07;;;;;;;4.50;2.13;;;4.70;99.90;;;;;;5068366;28;20048;-43
2023/04/27 04:08:33;;;;;;;3.10;2.03;;;4.60;99.90;;;;;;5065603;28;20032;-37
2023/04/27 04:10:59;;;;;;;6.53;2.50;;;4.60;99.90;;;;;;5061770;28;20473;-41
2023/04/27 04:13:25;;;;;;;3.97;2.05;;;4.60;99.90;;;;;;5069411;28;20413;-41
2023/04/27 04:16:02;;;;;;;6.50;2.47;;;4.60;99.90;;;;;;5054056;28;20029;-40
2023/04/27 04:18:27;;;;;;;8.43;1.95;;;4.60;99.90;;;;;;5054229;28;20501;-42
2023/04/27 04:20:53;;;;;;;4.13;2.15;;;4.60;99.90;;;;;;5068594;28;20025;-47
2023/04/27 04:23:18;;;;;;;5.30;2.38;;;4.60;99.90;;;;;;5067449;28;20029;-41
2023/04/27 04:25:47;;;;;;;7.50;2.78;;;4.50;99.90;;;;;;5059478;28;20060;-41
2023/04/27 04:28:12;;;;;;;6.20;2.42;;;4.50;99.90;;;;;;5061131;28;20028;-39
2023/04/27 04:30:39;;;;;;;7.45;2.10;;;4.40;99.90;;;;;;5074305;28;20107;-38
2023/04/27 04:33:05;;;;;;;4.85;2.17;;;4.40;99.90;;;;;;5055901;28;20536;-41
2023/04/27 04:35:33;;;;;;;3.35;2.22;;;4.40;99.90;;;;;;5055984;28;20056;-41
2023/04/27 04:37:59;;;;;;;6.75;2.40;;;4.40;99.90;;;;;;5055696;28;20021;-40
2023/04/27 04:40:25;;;;;;;5.13;2.25;;;4.40;99.90;;;;;;5065931;28;20047;-38
2023/04/27 04:42:51;;;;;;;7.72;2.55;;;4.30;99.90;;;;;;5075696;28;20021;-40
2023/04/27 04:45:17;;;;;;;5.10;2.58;;;4.30;99.90;;;;;;5073358;28;20032;-41
2023/04/27 04:47:43;;;;;;;5.45;2.53;;;4.40;99.90;;;;;;5074888;28;20032;-41
2023/04/27 04:50:09;;;;;;;5.20;2.65;;;4.40;99.90;;;;;;5073099;28;20033;-41
2023/04/27 04:52:36;;;;;;;9.30;2.92;;;4.40;99.90;;;;;;5061885;28;20119;-41
2023/04/27 04:55:02;;;;;;;4.18;2.72;;;4.40;99.90;;;;;;5067734;28;20417;-42
2023/04/27 04:57:29;;;;;;;7.30;2.55;;;4.40;99.90;;;;;;5075364;28;20048;-43
2023/04/27 04:59:55;;;;;;;3.47;2.30;;;4.50;99.90;;;;;;5074120;28;20393;-43
2023/04/27 05:02:21;;;;;;;8.95;2.70;;;4.60;99.90;;;;;;5073911;28;20033;-40
2023/04/27 05:04:46;;;;;;;5.65;2.75;;;4.60;99.90;;;;;;5064049;28;20032;-40
2023/04/27 05:07:12;;;;;;;4.97;2.40;;;4.70;99.90;;;;;;5055087;28;20013;-40
2023/04/27 05:09:38;;;;;;;2.97;2.08;;;4.80;99.90;;;;;;5066122;28;20033;-40
2023/04/27 05:12:04;;;;;;;8.07;2.80;;;4.90;99.90;;;;;;5075160;28;20451;-41
2023/04/27 05:14:30;;;;;;;6.32;2.67;;;4.90;99.90;;;;;;5063001;28;20025;-40
2023/04/27 05:16:55;;;;;;;15.82;3.00;;;5.00;99.90;;;;;;5054972;28;20021;-40
2023/04/27 05:19:21;;;;;;;7.72;3.28;;;5.10;99.90;;;;;;5059507;28;20024;-41
2023/04/27 05:21:47;;;;;;;9.27;2.42;;;5.10;99.90;;;;;;5075006;28;20024;-40
2023/04/27 05:24:13;;;;;;;3.03;2.35;;;5.20;99.90;;;;;;5067261;28;20079;-40
2023/04/27 05:26:38;;;;;;;4.72;2.28;;;5.30;99.90;;;;;;5051577;28;20025;-41
2023/04/27 05:29:04;;;;;;;5.70;2.50;;;5.50;99.90;;;;;;5057799;28;20063;-41
2023/04/27 05:31:30;;;;;;;2.95;2.30;;;5.70;99.90;;;;;;5071850;28;20028;-40
2023/04/27 05:33:55;;;;;;;2.85;1.73;;;5.80;99.90;;;;;;5061223;28;20079;-36
2023/04/27 05:36:21;;;;;;;3.72;2.22;;;5.80;99.90;;;;;;5058573;28;20024;-36
2023/04/27 05:38:47;;;;;;;10.57;1.98;;;5.90;99.90;;;;;;5068625;28;20643;-42
2023/04/27 05:41:12;;;;;;;5.30;1.98;;;6.10;99.90;;;;;;5068835;28;20029;-40
2023/04/27 05:43:38;;;;;;;2.25;1.75;;;6.20;99.90;;;;;;5069540;28;20025;-38
2023/04/27 05:46:04;;;;;;;5.82;1.67;;;6.30;99.90;;;;;;5054308;28;20104;-40
2023/04/27 05:48:29;;;;;;;2.28;1.50;;;6.40;99.90;;;;;;5058280;28;20032;-34
2023/04/27 05:51:02;;;;;;;5.43;1.80;;;6.50;99.90;;;;;;5073201;28;20036;-36
2023/04/27 05:53:28;;;;;;;6.38;1.95;;;6.50;99.90;;;;;;5074243;28;20497;-36
2023/04/27 05:55:55;;;;;;;2.72;1.95;;;6.60;99.90;;;;;;5072844;28;20024;-41
2023/04/27 05:58:21;;;;;;;4.18;1.98;;;6.70;99.90;;;;;;5073112;28;20104;-45
2023/04/27 06:00:46;;;;;;;4.75;1.80;;;6.80;99.90;;;;;;5062284;28;20231;-43
2023/04/27 06:03:12;;;;;;;4.68;1.90;;;7.00;99.90;;;;;;5062264;28;20038;-41
2023/04/27 06:05:38;;;;;;;3.83;1.95;;;7.10;99.90;;;;;;5063674;28;20021;-40
2023/04/27 06:08:03;;;;;;;3.58;2.28;;;7.10;99.90;;;;;;5074204;28;20544;-41
2023/04/27 06:10:29;;;;;;;3.78;2.17;;;7.10;99.90;;;;;;5073004;28;20035;-40
2023/04/27 06:12:55;;;;;;;4.18;2.22;;;7.20;99.90;;;;;;5071826;28;20025;-40
2023/04/27 06:15:20;;;;;;;5.68;2.70;;;7.20;99.90;;;;;;5065273;28;20433;-43
2023/04/27 06:17:46;;;;;;;6.53;2.30;;;7.30;99.90;;;;;;5072383;28;20013;-41
2023/04/27 06:20:12;;;;;;;6.60;2.38;;;7.40;99.90;;;;;;5073667;28;20060;-42
2023/04/27 06:22:38;;;;;;;3.63;2.03;;;7.40;99.90;;;;;;5057196;28;20489;-38
2023/04/27 06:25:05;;;;;;;6.78;2.42;;;7.40;99.90;;;;;;5058917;28;20518;-41
2023/04/27 06:27:31;;;;;;;7.65;2.45;;;7.50;99.90;;;;;;5065471;28;20500;-40
2023/04/27 06:29:57;;;;;;;3.13;1.88;;;7.60;99.90;;;;;;5073448;28;20021;-40
2023/04/27 06:32:23;;;;;;;6.20;2.22;;;7.60;99.90;;;;;;5063669;28;20033;-40
2023/04/27 06:34:49;;;;;;;5.15;2.15;;;7.70;99.90;;;;;;5054974;28;20469;-40
2023/04/27 06:37:16;;;;;;;4.95;2.38;;;7.80;99.90;;;;;;5073628;28;20027;-40
2023/04/27 06:39:42;;;;;;;3.00;2.05;;;7.90;99.90;;;;;;5059446;28;20493;-41
2023/04/27 06:42:08;;;;;;;2.63;2.33;;;8.00;99.90;;;;;;5053313;28;20025;-40
2023/04/27 06:44:34;;;;;;;5.75;2.25;;;8.20;99.90;;;;;;5060015;28;20435;-39
2023/04/27 06:46:59;;;;;;;6.90;2.30;;;8.30;99.90;;;;;;5071780;28;20052;-41
2023/04/27 06:49:25;;;;;;;5.95;2.35;;;8.40;99.90;;;;;;5073180;28;20028;-39
2023/04/27 06:51:51;;;;;;;2.60;2.20;;;8.50;99.90;;;;;;5071708;28;20063;-39
2023/04/27 06:54:17;;;;;;;3.63;2.42;;;8.60;99.90;;;;;;5068551;28;20108;-40
2023/04/27 06:56:43;;;;;;;2.63;1.70;;;8.70;99.90;;;;;;5073118;28;20021;-41
2023/04/27 06:59:09;;;;;;;10.50;2.35;;;8.80;99.90;;;;;;5073266;28;20032;-50
2023/04/27 07:01:35;;;;;;;2.85;2.08;;;8.80;99.90;;;;;;5072310;28;20531;-40
2023/04/27 07:04:02;;;;;;;6.63;2.28;;;8.90;99.90;;;;;;5069939;28;20063;-34
2023/04/27 07:06:28;;;;;;;5.32;1.75;;;9.10;99.90;;;;;;5071924;28;20146;-39
2023/04/27 07:08:54;;;;;;;4.35;1.98;;;9.10;99.90;;;;;;5071596;28;20024;-41
2023/04/27 07:11:20;;;;;;;4.97;2.40;;;9.20;99.90;;;;;;5052905;28;20393;-39
2023/04/27 07:13:46;;;;;;;4.38;2.30;;;9.30;99.90;;;;;;5052218;28;20037;-39
2023/04/27 07:16:11;;;;;;;4.38;2.38;;;9.40;99.90;;;;;;5056439;28;20440;-38
2023/04/27 07:18:37;;;;;;;3.22;2.33;;;9.60;99.90;;;;;;5071603;28;20081;-38
2023/04/27 07:21:03;;;;;;;10.95;3.08;;;9.60;99.90;;;;;;5072517;28;20021;-39
2023/04/27 07:23:28;;;;;;;3.28;2.40;;;9.60;99.90;;;;;;5066909;28;20040;-36
2023/04/27 07:25:54;;;;;;;2.85;2.10;;;9.60;99.90;;;;;;5056326;28;20044;-43
2023/04/27 07:28:20;;;;;;;5.22;2.63;;;9.70;99.90;;;;;;5052976;28;20409;-40
2023/04/27 07:30:45;;;;;;;5.90;2.00;;;9.80;99.90;;;;;;5055232;28;20495;-42
2023/04/27 07:33:12;;;;;;;2.17;1.65;;;9.80;99.90;;;;;;5068150;28;20043;-39
2023/04/27 07:35:38;;;;;;;2.88;1.90;;;9.90;99.90;;;;;;5072910;28;20039;-39
2023/04/27 07:38:04;;;;;;;3.55;2.45;;;10.00;99.90;;;;;;5066773;28;20024;-41
2023/04/27 07:40:31;;;;;;;4.50;2.20;;;10.00;99.90;;;;;;5058160;28;20040;-40
2023/04/27 07:42:57;;;;;;;4.75;2.25;;;10.10;99.90;;;;;;5052996;28;20414;-42
2023/04/27 07:45:30;;;;;;;3.63;2.03;;;10.20;99.90;;;;;;5059256;28;20040;-42
2023/04/27 07:47:57;;;;;;;2.72;1.70;;;10.20;99.90;;;;;;5069427;28;20031;-42
2023/04/27 07:50:25;;;;;;;4.10;2.10;;;10.50;99.90;;;;;;5070565;28;20029;-40
2023/04/27 07:52:53;;;;;;;3.22;1.90;;;10.60;99.90;;;;;;5070659;28;20458;-40
2023/04/27 07:55:21;;;;;;;5.38;2.53;;;10.80;99.90;;;;;;5053266;28;20021;-39
2023/04/27 07:57:46;;;;;;;4.13;2.40;;;10.90;99.90;;;;;;5059700;28;20032;-41
2023/04/27 08:00:12;;;;;;;4.95;2.10;;;10.90;99.90;;;;;;5076732;28;20017;-40
2023/04/27 08:02:38;;;;;;;3.85;2.00;;;11.00;99.90;;;;;;5075256;28;20074;-40
2023/04/27 08:05:04;;;;;;;4.15;2.15;;;11.00;99.90;;;;;;5069918;28;20824;-41
2023/04/27 08:07:30;;;;;;;5.13;2.15;;;11.10;99.90;;;;;;5067788;28;20487;-41
2023/04/27 08:09:56;;;;;;;4.45;1.88;;;11.20;99.90;;;;;;5072417;28;20027;-40
2023/04/27 08:12:22;;;;;;;4.40;2.17;;;11.20;99.90;;;;;;5067612;28;20477;-45
2023/04/27 08:14:48;;;;;;;3.33;2.17;;;11.20;99.90;;;;;;5066865;28;20492;-42
2023/04/27 08:17:13;;;;;;;3.13;1.92;;;11.40;99.90;;;;;;5075917;28;20025;-41
2023/04/27 08:19:40;;;;;;;1.73;1.40;;;11.50;99.90;;;;;;5074607;28;20020;-40
2023/04/27 08:22:05;;;;;;;7.75;1.85;;;11.50;99.90;;;;;;5070974;28;20547;-41
2023/04/27 08:24:31;;;;;;;3.47;1.65;;;11.50;99.90;;;;;;5056735;28;20033;-38
2023/04/27 08:26:57;;;;;;;6.20;1.98;;;11.60;99.90;;;;;;5055855;28;20029;-41
2023/04/27 08:29:22;;;;;;;3.72;1.85;;;11.60;99.90;;;;;;5067129;28;20115;-42
2023/04/27 08:31:48;;;;;;;2.50;1.70;;;11.50;99.90;;;;;;5075608;28;20028;-42
2023/04/27 08:34:14;;;;;;;7.03;1.92;;;11.70;99.90;;;;;;5071527;28;20016;-41
2023/04/27 08:36:40;;;;;;;2.67;2.05;;;11.80;99.90;;;;;;5055681;28;20078;-40
2023/04/27 08:39:06;;;;;;;2.40;1.58;;;11.80;99.90;;;;;;5056857;28;20020;-41
2023/04/27 08:41:32;;;;;;;7.97;2.90;;;12.00;99.90;;;;;;5056080;28;20557;-42
2023/04/27 08:43:58;;;;;;;4.30;1.70;;;12.10;99.90;;;;;;5062807;28;20107;-41
2023/04/27 08:46:26;;;;;;;4.80;1.77;;;12.10;99.90;;;;;;5075750;28;20413;-40
2023/04/27 08:48:55;;;;;;;3.13;1.45;;;12.20;99.90;;;;;;5074075;28;20081;-40
2023/04/27 08:51:21;;;;;;;3.78;1.67;;;12.10;99.80;;;;;;5075720;28;20392;-41
2023/04/27 08:53:50;;;;;;;1.77;1.30;;;12.20;99.80;;;;;;5073497;28;20043;-41
2023/04/27 08:56:22;;;;;;;3.25;1.63;;;12.10;99.20;;;;;;5071926;28;20031;-43
2023/04/27 08:58:48;;;;;;;5.72;1.75;;;12.00;99.90;;;;;;5055592;28;20047;-41
2023/04/27 09:01:14;;;;;;;3.85;2.10;;;12.00;99.90;;;;;;5054815;28;20107;-39
2023/04/27 09:03:40;;;;;;;4.28;2.03;;;12.10;99.90;;;;;;5055721;28;20461;-41
2023/04/27 09:06:07;;;;;;;3.47;1.98;;;12.10;99.90;;;;;;5054847;28;20021;-40
2023/04/27 09:08:42;;;;;;;3.88;1.80;;;12.30;99.90;;;;;;5053869;28;20082;-41
2023/04/27 09:11:07;;;;;;;4.88;1.67;;;12.40;99.90;;;;;;5062731;28;20473;-41
2023/04/27 09:13:38;;;;;;;3.83;1.88;;;12.70;99.90;;;;;;5074980;28;20027;-44
2023/04/27 09:16:04;;;;;;;2.65;1.80;;;13.00;99.60;;;;;;5075026;28;20546;-43
2023/04/27 09:18:33;;;;;;;1.83;1.60;;;13.20;99.60;;;;;;5065670;28;20021;-37
2023/04/27 09:20:59;;;;;;;3.20;1.40;;;13.50;99.30;;;;;;5055002;28;20533;-36
2023/04/27 09:23:30;;;;;;;4.32;1.80;;;13.90;97.90;;;;;;5054953;28;20485;-37
2023/04/27 09:25:58;;;;;;;8.38;2.10;;;14.10;98.20;;;;;;5057078;28;20025;-37
2023/04/27 09:28:24;;;;;;;;;;;14.10;98.90;;;;;;5061712;28;20039;-38
2023/04/27 09:30:58;;;;;;;3.60;1.75;;;14.20;98.60;;;;;;5058394;28;20380;-37
2023/04/27 09:33:34;;;;;;;5.30;1.90;;;14.20;98.30;;;;;;5063552;28;20397;-40
2023/04/27 09:36:05;;;;;;;6.37;2.20;;;14.30;97.10;;;;;;5054538;28;20070;-38
2023/04/27 09:38:31;;;;;;;4.07;1.85;;;14.60;95.80;;;;;;5055820;28;20017;-38
2023/04/27 09:40:58;;;;;;;3.75;1.60;;;14.60;96.40;;;;;;5054232;28;20056;-38
2023/04/27 09:43:25;;;;;;;4.72;1.77;;;14.60;97.20;;;;;;5054565;28;20481;-39
2023/04/27 09:45:51;;;;;;;1.42;1.33;;;14.70;97.30;;;;;;5054372;28;20033;-37
2023/04/27 09:48:17;;;;;;;6.32;1.95;;;15.00;97.70;;;;;;5060001;28;20032;-37
2023/04/27 09:50:44;;;;;;;2.55;1.55;;;15.30;96.30;;;;;;5074533;28;20185;-38
2023/04/27 09:53:12;;;;;;;2.65;1.70;;;15.30;96.80;;;;;;5072741;28;20115;-38
2023/04/27 09:56:01;;;;;;;3.42;1.77;;;15.20;95.50;;;;;;5072210;28;20107;-36
2023/04/27 09:58:32;;;;;;;3.20;1.75;;;15.30;96.00;;;;;;5070783;28;20489;-39
2023/04/27 10:01:12;;;;;;;6.30;2.30;;;15.30;95.60;;;;;;5073956;28;20040;-35
2023/04/27 10:04:05;;;;;;;2.35;1.73;;;15.30;95.10;;;;;;5065513;28;20043;-42
2023/04/27 10:06:43;;;;;;;2.47;1.98;;;15.70;94.60;;;;;;5055264;28;20037;-34
2023/04/27 10:09:09;;;;;;;2.65;1.42;;;15.80;93.90;;;;;;5060245;28;20036;-37
2023/04/27 10:11:43;;;;;;;1.83;1.60;;;15.90;93.00;;;;;;5073793;28;20032;-36
2023/04/27 10:14:16;;;;;;;2.50;1.92;;;16.00;93.30;;;;;;5068736;28;20036;-37
2023/04/27 10:16:46;;;;;;;4.70;2.00;;;16.00;93.60;;;;;;5057887;28;20021;-36
2023/04/27 10:19:12;;;;;;;2.70;1.35;;;15.80;93.10;;;;;;5053598;28;20066;-40
2023/04/27 10:21:50;;;;;;;2.05;1.65;;;15.90;93.00;;;;;;5067662;28;20032;-38
2023/04/27 10:24:15;;;;;;;2.47;1.90;;;15.80;94.30;;;;;;5066824;28;20490;-37
2023/04/27 10:26:46;;;;;;;2.88;1.70;;;15.60;94.40;;;;;;5067490;28;20021;-37
2023/04/27 10:29:15;;;;;;;3.80;1.98;;;15.80;93.10;;;;;;5073793;28;20524;-43
2023/04/27 10:31:46;;;;;;;5.20;2.00;;;15.60;93.00;;;;;;5073667;28;20480;-41
2023/04/27 10:34:16;;;;;;;2.30;1.77;;;15.30;94.00;;;;;;5069825;28;20370;-43
2023/04/27 10:36:42;;;;;;;2.75;1.70;;;15.30;94.30;;;;;;5057089;28;20118;-45
2023/04/27 10:39:18;;;;;;;2.72;1.60;;;15.30;93.60;;;;;;5065617;28;20088;-42
2023/04/27 10:41:54;;;;;;;2.53;1.67;;;15.20;94.40;;;;;;5053339;28;20106;-42
2023/04/27 10:44:28;;;;;;;2.72;1.73;;;15.10;94.10;;;;;;5059877;28;20503;-44
2023/04/27 10:46:56;;;;;;;2.03;1.63;;;15.20;94.10;;;;;;5066843;28;20488;-42
2023/04/27 10:49:22;;;;;;;5.47;1.92;;;15.20;94.00;;;;;;5063719;28;20027;-42
2023/04/27 10:51:50;;;;;;;1.98;1.80;;;15.10;94.80;;;;;;5054585;28;20112;-41
2023/04/27 10:54:16;;;;;;;4.97;2.08;;;15.10;94.30;;;;;;5059297;28;20024;-39
2023/04/27 10:56:42;;;;;;;3.50;2.13;;;15.20;94.60;;;;;;5073006;28;20503;-42
2023/04/27 10:59:08;;;;;;;2.70;1.98;;;15.20;94.70;;;;;;5063885;28;20032;-46
2023/04/27 11:01:34;;;;;;;5.68;2.30;;;15.20;94.60;;;;;;5070300;28;20112;-45
2023/04/27 11:04:44;;;;;;;3.95;2.00;;;15.20;94.80;;;;;;5069002;28;20031;-41
2023/04/27 11:07:10;;;;;;;4.30;2.10;;;15.20;93.50;;;;;;5016642;28;20038;-41
2023/04/27 11:09:37;;;;;;;3.83;2.33;;;15.20;94.50;;;;;;5019392;28;20066;-41
2023/04/27 11:12:06;;;;;;;4.85;2.58;;;15.20;95.30;;;;;;5073095;28;20472;-43
2023/04/27 11:14:36;;;;;;;4.63;2.17;;;15.20;94.10;;;;;;5054021;28;20024;-42
2023/04/27 11:17:06;;;;;;;8.70;2.22;;;15.20;93.40;;;;;;5072766;28;20116;-42
2023/04/27 11:19:31;;;;;;;8.88;2.20;;;15.30;93.70;;;;;;5061075;28;20020;-39
2023/04/27 11:22:05;;;;;;;4.72;2.30;;;15.30;93.50;;;;;;5055091;28;20374;-42
2023/04/27 11:24:31;;;;;;;6.88;2.28;;;15.30;93.80;;;;;;5052556;28;20436;-47
2023/04/27 11:26:57;;;;;;;2.58;1.88;;;15.30;93.90;;;;;;5072221;28;20060;-45
2023/04/27 11:29:23;;;;;;;4.82;2.30;;;15.40;92.90;;;;;;5071333;28;20442;-39
2023/04/27 11:31:50;;;;;;;8.32;3.05;;;15.30;93.10;;;;;;5052687;28;20424;-42
2023/04/27 11:34:22;;;;;;;2.63;2.40;;;15.20;93.10;;;;;;5056135;28;20045;-37
2023/04/27 11:37:02;;;;;;;4.65;2.30;;;15.10;93.30;;;;;;5058473;28;20493;-42
2023/04/27 11:39:33;;;;;;;3.55;2.28;;;15.00;93.40;;;;;;5052414;28;20513;-44
2023/04/27 11:42:24;;;;;;;5.13;2.60;;;15.10;94.20;;;;;;5052764;28;20478;-42
2023/04/27 11:44:55;;;;;;;4.55;2.38;;;15.30;93.50;;;;;;5059762;28;20025;-44
2023/04/27 11:47:22;;;;;;;3.95;2.60;;;15.50;92.80;;;;;;5069643;28;20470;-46
2023/04/27 11:49:53;;;;;;;6.57;2.58;;;15.60;92.40;;;;;;5065177;28;20056;-40
2023/04/27 11:52:19;;;;;;;4.80;2.38;;;15.60;92.90;;;;;;5064303;28;20465;-42
2023/04/27 11:54:49;;;;;;;4.57;2.90;;;15.50;92.70;;;;;;5059464;28;20048;-42
2023/04/27 11:57:15;;;;;;;3.47;2.30;;;15.40;92.50;;;;;;5072710;28;20477;-40
2023/04/27 11:59:41;;;;;;;3.92;2.10;;;15.30;93.00;;;;;;5072381;28;20016;-41
2023/04/27 12:02:07;;;;;;;8.75;2.83;;;15.40;93.30;;;;;;5067195;28;20035;-44
2023/04/27 12:04:33;;;;;;;6.97;2.30;;;15.50;93.10;;;;;;5063048;28;20044;-44
2023/04/27 12:07:01;;;;;;;4.05;2.00;;;15.60;93.20;;;;;;5071934;28;20033;-42
2023/04/27 12:09:27;;;;;;;3.50;2.00;;;15.80;92.60;;;;;;5071188;28;20082;-41
2023/04/27 12:11:53;;;;;;;3.95;2.45;;;15.80;93.10;;;;;;5071016;28;20024;-41
2023/04/27 12:14:19;;;;;;;3.10;2.30;;;15.90;92.20;;;;;;5072329;28;20073;-41
2023/04/27 12:16:45;;;;;;;6.90;3.85;;;16.00;91.90;;;;;;5072490;28;20100;-42
2023/04/27 12:19:11;;;;;;;6.93;2.97;;;16.10;92.20;;;;;;5072423;28;20020;-43
2023/04/27 12:21:36;;;;;;;5.43;2.92;;;16.10;93.30;;;;;;5071481;28;20516;-42
2023/04/27 12:24:02;;;;;;;3.40;2.85;;;16.20;92.40;;;;;;5072453;28;20461;-42
2023/04/27 12:26:28;;;;;;;4.60;2.80;;;16.20;91.90;;;;;;5069776;28;20048;-42
2023/04/27 12:28:53;;;;;;;3.35;2.70;;;16.10;92.40;;;;;;5072185;28;20036;-41
2023/04/27 12:31:23;;;;;;;4.55;2.60;;;16.10;92.00;;;;;;5072039;28;20103;-40
2023/04/27 12:33:49;;;;;;;3.88;2.53;;;16.10;93.20;;;;;;5072145;28;20032;-42
2023/04/27 12:36:16;;;;;;;10.82;4.05;;;16.20;93.00;;;;;;5072000;28;20445;-42
2023/04/27 12:38:41;;;;;;;11.45;3.15;;;16.30;91.60;;;;;;5071449;28;20451;-38
2023/04/27 12:41:07;;;;;;;3.85;2.58;;;16.30;92.00;;;;;;5072198;28;20053;-43
2023/04/27 12:43:35;;;;;;;5.20;2.85;;;16.30;92.20;;;;;;5066676;28;20439;-41
2023/04/27 12:46:01;;;;;;;2.70;2.30;;;16.40;92.80;;;;;;5055662;28;20114;-41
2023/04/27 12:48:27;;;;;;;2.53;2.30;;;16.50;92.60;;;;;;5055201;28;20043;-42
2023/04/27 12:50:52;;;;;;;2.63;2.42;;;16.60;91.70;;;;;;5062794;28;20108;-39